Time;durP1;ratioP1;P1;durP2;ratioP2;P2;SDS_P1;SDS_P2;PMS_P1;PMS_P2;Temp;Humidity;BMP_temperature;BMP_pressure;BME280_temperature;BME280_humidity;BME280_pressure;Samples;Min_cycle;Max_cycle;Signal;HPM_P1;HPM_P2
2022/03/08 00:01:29;;;;;;;10.17;7.80;;;;;;;-1.22;61.89;100904.94;5064313;28;20230;-61
2022/03/08 00:03:55;;;;;;;14.40;8.00;;;;;;;-1.28;61.88;100900.66;5061314;28;20439;-60
2022/03/08 00:06:20;;;;;;;12.57;8.63;;;;;;;-1.25;61.68;100900.72;5052186;28;20193;-59
2022/03/08 00:08:46;;;;;;;12.30;9.07;;;;;;;-1.20;61.82;100894.00;5052787;28;20261;-61
2022/03/08 00:11:12;;;;;;;9.80;7.63;;;;;;;-1.21;62.08;100896.53;5051993;28;20258;-58
2022/03/08 00:13:38;;;;;;;12.67;7.80;;;;;;;-1.25;62.15;100898.19;5051852;28;20227;-60
2022/03/08 00:16:04;;;;;;;10.93;8.57;;;;;;;-1.27;61.88;100902.38;5044862;28;20489;-59
2022/03/08 00:18:30;;;;;;;11.00;7.30;;;;;;;-1.31;61.96;100908.22;5060006;28;20178;-61
2022/03/08 00:20:55;;;;;;;9.27;7.33;;;;;;;-1.22;61.85;100898.19;5041264;28;20309;-59
2022/03/08 00:23:20;;;;;;;12.87;8.17;;;;;;;-1.24;62.04;100899.88;5052024;28;20175;-59
2022/03/08 00:25:46;;;;;;;11.97;8.03;;;;;;;-1.32;62.55;100893.91;5052838;28;20202;-60
2022/03/08 00:28:11;;;;;;;14.17;7.87;;;;;;;-1.22;62.18;100897.34;5052451;28;20192;-59
2022/03/08 00:30:38;;;;;;;10.50;8.17;;;;;;;-1.38;62.23;100901.44;5021389;28;20990;-59
2022/03/08 00:33:03;;;;;;;8.67;7.13;;;;;;;-1.40;62.63;100898.91;5056616;28;20185;-60
2022/03/08 00:35:29;;;;;;;12.20;8.43;;;;;;;-1.37;62.60;100898.09;5072405;28;20421;-59
2022/03/08 00:37:55;;;;;;;10.80;8.20;;;;;;;-1.34;62.31;100903.16;5072180;28;20704;-60
2022/03/08 00:40:23;;;;;;;15.37;7.97;;;;;;;-1.38;62.45;100898.91;5060665;28;20506;-58
2022/03/08 00:42:49;;;;;;;15.57;7.03;;;;;;;-1.41;62.69;100897.22;5057671;28;20506;-59
2022/03/08 00:45:14;;;;;;;9.73;7.73;;;;;;;-1.40;62.95;100895.53;5071227;28;20412;-59
2022/03/08 00:47:40;;;;;;;12.73;7.20;;;;;;;-1.40;62.92;100885.44;5071904;28;20478;-58
2022/03/08 00:50:08;;;;;;;13.17;7.83;;;;;;;-1.41;63.10;100882.06;5062170;28;20264;-60
2022/03/08 00:52:34;;;;;;;8.70;7.17;;;;;;;-1.37;63.36;100888.00;5071477;28;20629;-58
2022/03/08 00:54:59;;;;;;;9.27;6.80;;;;;;;-1.38;63.22;100882.09;5072161;28;20181;-59
2022/03/08 00:57:25;;;;;;;11.13;7.37;;;;;;;-1.40;63.07;100881.25;5071673;28;20173;-58
2022/03/08 00:59:50;;;;;;;10.97;7.70;;;;;;;-1.40;63.09;100873.69;5072682;28;20273;-59
2022/03/08 01:02:15;;;;;;;12.47;7.50;;;;;;;-1.42;63.08;100874.50;5077812;28;20245;-59
2022/03/08 01:04:41;;;;;;;8.67;7.03;;;;;;;-1.43;63.16;100876.16;5072250;28;20185;-58
2022/03/08 01:07:07;;;;;;;10.00;7.77;;;;;;;-1.37;63.08;100866.09;5071490;28;20200;-60
2022/03/08 01:09:32;;;;;;;11.37;7.07;;;;;;;-1.30;62.83;100872.91;5069906;28;20198;-59
2022/03/08 01:11:58;;;;;;;12.03;7.70;;;;;;;-1.41;62.74;100869.47;5077336;28;20502;-60
2022/03/08 01:14:23;;;;;;;20.27;7.97;;;;;;;-1.32;63.19;100866.16;5072663;28;20170;-59
2022/03/08 01:16:48;;;;;;;11.13;7.63;;;;;;;-1.35;63.29;100866.16;5072190;28;20171;-59
2022/03/08 01:19:13;;;;;;;8.93;7.03;;;;;;;-1.42;63.45;100857.66;5071636;28;20168;-61
2022/03/08 01:21:39;;;;;;;10.13;7.97;;;;;;;-1.54;63.70;100855.91;5074501;28;20318;-59
2022/03/08 01:24:05;;;;;;;9.77;7.10;;;;;;;-1.39;63.74;100852.66;5074833;28;20276;-60
2022/03/08 01:26:31;;;;;;;8.30;7.10;;;;;;;-1.41;63.94;100848.44;5070722;28;20652;-60
2022/03/08 01:28:57;;;;;;;9.77;6.93;;;;;;;-1.45;63.95;100850.09;5052973;28;20524;-59
2022/03/08 01:31:23;;;;;;;8.77;7.00;;;;;;;-1.42;63.95;100842.53;5059644;28;20480;-59
2022/03/08 01:33:49;;;;;;;7.93;7.13;;;;;;;-1.55;64.23;100839.09;5065105;28;20185;-59
2022/03/08 01:36:15;;;;;;;12.93;7.93;;;;;;;-1.60;64.95;100835.69;5070432;28;20511;-61
2022/03/08 01:38:41;;;;;;;9.73;6.40;;;;;;;-1.67;65.11;100826.38;5086597;28;20487;-59
2022/03/08 01:41:06;;;;;;;9.00;6.70;;;;;;;-1.57;65.23;100824.78;5069247;28;20876;-58
2022/03/08 01:43:32;;;;;;;10.20;7.40;;;;;;;-1.52;64.84;100825.66;5064163;28;20186;-59
2022/03/08 01:45:57;;;;;;;10.70;6.77;;;;;;;-1.62;65.04;100827.25;5071223;28;20544;-58
2022/03/08 01:48:22;;;;;;;7.80;6.40;;;;;;;-1.65;65.28;100832.25;5069177;28;20610;-60
2022/03/08 01:50:48;;;;;;;12.33;7.23;;;;;;;-1.69;65.61;100823.00;5067384;28;20237;-61
2022/03/08 01:53:13;;;;;;;9.43;7.40;;;;;;;-1.83;65.89;100822.88;5081072;28;20170;-60
2022/03/08 01:55:39;;;;;;;11.90;7.60;;;;;;;-1.80;65.98;100817.84;5071470;28;20588;-59
2022/03/08 01:58:04;;;;;;;8.93;7.00;;;;;;;-1.87;66.31;100821.16;5071446;28;20586;-59
2022/03/08 02:00:31;;;;;;;8.17;6.90;;;;;;;-1.94;66.94;100815.22;5061431;28;20308;-59
2022/03/08 02:02:59;;;;;;;9.97;7.43;;;;;;;-2.02;67.40;100809.25;5057517;28;20189;-59
2022/03/08 02:55:51;;;;;;;10.57;7.13;;;;;;;-1.95;68.34;100794.22;5051815;28;20518;-59
2022/03/08 02:58:16;;;;;;;13.37;8.43;;;;;;;-1.85;68.14;100790.09;5072642;28;20444;-58
2022/03/08 03:00:42;;;;;;;11.87;6.67;;;;;;;-1.78;68.19;100785.94;5069878;28;20224;-58
2022/03/08 03:03:08;;;;;;;10.87;6.80;;;;;;;-1.84;68.05;100785.88;5073228;28;20222;-59
2022/03/08 03:05:34;;;;;;;10.17;7.27;;;;;;;-1.82;68.13;100774.97;5072931;28;20267;-59
2022/03/08 03:08:00;;;;;;;11.03;6.67;;;;;;;-1.86;68.11;100774.94;5072335;28;20408;-60
2022/03/08 03:10:26;;;;;;;9.97;7.13;;;;;;;-1.85;68.34;100776.63;5066174;28;20531;-59
2022/03/08 03:12:53;;;;;;;9.43;7.00;;;;;;;-1.80;67.86;100780.03;5086913;28;20188;-58
2022/03/08 03:15:20;;;;;;;10.97;7.27;;;;;;;-1.72;67.86;100782.63;5072869;28;20174;-59
2022/03/08 03:17:46;;;;;;;10.77;7.07;;;;;;;-1.67;67.87;100775.94;5072387;28;20773;-58
2022/03/08 03:20:15;;;;;;;8.80;6.80;;;;;;;-1.70;67.58;100766.66;5064020;28;20411;-58
2022/03/08 03:22:41;;;;;;;9.40;6.50;;;;;;;-1.85;67.99;100774.09;5087810;28;20765;-59
2022/03/08 03:25:07;;;;;;;10.80;6.63;;;;;;;-1.76;68.10;100765.75;5073307;28;20460;-59
2022/03/08 03:27:33;;;;;;;10.50;7.00;;;;;;;-1.83;67.81;100772.44;5072061;28;20232;-61
2022/03/08 03:29:59;;;;;;;12.00;7.67;;;;;;;-1.77;68.22;100766.59;5072051;28;20459;-60
2022/03/08 03:32:24;;;;;;;10.87;7.33;;;;;;;-1.82;68.34;100764.88;5079471;28;20668;-59
2022/03/08 03:34:50;;;;;;;9.00;6.63;;;;;;;-1.87;68.84;100764.00;5073846;28;20212;-58
2022/03/08 03:37:16;;;;;;;10.97;7.23;;;;;;;-1.92;68.73;100754.72;5071961;28;20186;-66
2022/03/08 03:39:41;;;;;;;13.43;7.67;;;;;;;-1.91;69.20;100766.50;5073763;28;20414;-59
2022/03/08 03:42:07;;;;;;;8.33;6.70;;;;;;;-1.89;68.94;100768.19;5062606;28;20698;-60
2022/03/08 03:44:32;;;;;;;11.90;7.60;;;;;;;-2.06;69.50;100760.50;5073736;28;20268;-59
2022/03/08 03:46:57;;;;;;;13.73;8.60;;;;;;;-2.08;69.99;100757.13;5073830;28;20222;-59
2022/03/08 03:49:23;;;;;;;11.93;7.53;;;;;;;-1.99;69.63;100761.41;5072868;28;20198;-60
2022/03/08 03:51:50;;;;;;;11.00;7.40;;;;;;;-1.96;69.48;100763.94;5062276;28;20625;-61
2022/03/08 03:54:18;;;;;;;11.57;6.87;;;;;;;-2.05;69.88;100753.78;5073462;28;20204;-60
2022/03/08 03:56:43;;;;;;;14.20;7.57;;;;;;;-2.07;70.00;100756.31;5073505;28;20227;-59
2022/03/08 03:59:09;;;;;;;10.83;7.17;;;;;;;-1.96;70.16;100761.41;5072962;28;20415;-59
2022/03/08 04:01:34;;;;;;;8.97;7.00;;;;;;;-2.07;69.96;100758.81;5055318;28;20236;-59
2022/03/08 04:03:59;;;;;;;12.73;7.47;;;;;;;-1.99;69.64;100756.34;5077273;28;20178;-58
2022/03/08 04:06:25;;;;;;;10.57;7.30;;;;;;;-2.10;70.25;100761.31;5073131;28;20170;-59
2022/03/08 04:08:50;;;;;;;13.33;7.37;;;;;;;-2.06;69.98;100765.56;5072909;28;20203;-58
2022/03/08 04:11:15;;;;;;;11.63;7.60;;;;;;;-1.95;69.96;100766.47;5072796;28;20291;-60
2022/03/08 04:13:40;;;;;;;11.17;7.27;;;;;;;-2.03;69.78;100765.56;5079030;28;20204;-59
2022/03/08 04:16:06;;;;;;;12.57;7.90;;;;;;;-2.03;69.91;100767.25;5071141;28;20236;-60
2022/03/08 04:18:31;;;;;;;11.27;7.43;;;;;;;-1.92;70.02;100764.78;5080091;28;20185;-59
2022/03/08 04:20:57;;;;;;;10.23;6.97;;;;;;;-1.84;69.73;100766.53;5069563;28;20228;-60
2022/03/08 04:23:22;;;;;;;11.03;7.10;;;;;;;-1.84;69.02;100768.22;5066160;28;20238;-59
2022/03/08 04:25:47;;;;;;;12.93;7.27;;;;;;;-1.80;69.01;100765.75;5073009;28;20182;-58
2022/03/08 04:28:12;;;;;;;8.53;6.87;;;;;;;-1.79;69.38;100764.06;5072406;28;20177;-58
2022/03/08 04:30:38;;;;;;;12.67;8.30;;;;;;;-1.82;68.89;100762.38;5042167;28;20229;-61
2022/03/08 04:33:03;;;;;;;10.60;7.53;;;;;;;-1.83;69.01;100759.84;5071929;28;20252;-60
2022/03/08 04:35:28;;;;;;;7.73;6.07;;;;;;;-1.85;69.44;100757.31;5072316;28;20179;-59
2022/03/08 04:37:53;;;;;;;8.67;6.67;;;;;;;-1.82;69.30;100753.97;5072448;28;20180;-58
2022/03/08 04:40:20;;;;;;;8.00;6.33;;;;;;;-1.83;69.21;100759.84;5062145;28;20178;-59
2022/03/08 04:42:46;;;;;;;7.77;6.90;;;;;;;-1.89;69.28;100752.22;5071292;28;20192;-58
2022/03/08 04:45:12;;;;;;;9.03;6.90;;;;;;;-1.91;69.52;100747.19;5072587;28;20459;-58
2022/03/08 04:47:38;;;;;;;8.10;6.43;;;;;;;-1.97;69.70;100749.66;5070542;28;20556;-59
2022/03/08 04:50:06;;;;;;;8.90;6.73;;;;;;;-1.92;69.58;100748.00;5062554;28;20459;-61
2022/03/08 04:52:31;;;;;;;9.73;6.97;;;;;;;-2.02;69.69;100754.66;5071346;28;20201;-58
2022/03/08 04:54:56;;;;;;;7.77;6.97;;;;;;;-1.90;69.98;100746.31;5072308;28;20423;-59
2022/03/08 04:57:22;;;;;;;10.93;6.90;;;;;;;-1.93;69.97;100748.84;5071441;28;20221;-59
2022/03/08 04:59:47;;;;;;;8.80;6.93;;;;;;;-2.00;70.18;100753.00;5072425;28;20188;-59
2022/03/08 05:02:13;;;;;;;8.17;6.67;;;;;;;-1.98;70.69;100741.22;5077752;28;20232;-60
2022/03/08 05:04:38;;;;;;;10.30;6.87;;;;;;;-2.07;71.02;100740.31;5072369;28;20173;-63
2022/03/08 05:07:04;;;;;;;8.10;6.57;;;;;;;-2.07;70.99;100745.34;5072098;28;20185;-60
2022/03/08 05:09:29;;;;;;;8.43;6.07;;;;;;;-2.09;71.06;100742.84;5071651;28;20227;-59
2022/03/08 05:11:54;;;;;;;11.10;6.47;;;;;;;-2.04;70.99;100742.88;5076678;28;20633;-59
2022/03/08 05:14:20;;;;;;;8.67;6.77;;;;;;;-2.04;71.18;100741.19;5073652;28;20169;-59
2022/03/08 05:16:45;;;;;;;7.70;6.87;;;;;;;-2.02;71.39;100739.53;5072179;28;20651;-59
2022/03/08 05:19:10;;;;;;;9.03;6.40;;;;;;;-2.06;71.44;100735.31;5071443;28;20169;-59
2022/03/08 05:21:36;;;;;;;8.40;7.27;;;;;;;-2.13;71.64;100738.59;5053845;28;20584;-60
2022/03/08 05:24:01;;;;;;;7.57;6.80;;;;;;;-2.15;72.08;100738.56;5075848;28;20193;-60
2022/03/08 05:26:26;;;;;;;9.47;6.63;;;;;;;-2.16;71.92;100734.38;5072005;28;20229;-58
2022/03/08 05:28:52;;;;;;;8.63;6.70;;;;;;;-2.23;72.25;100740.22;5071583;28;20201;-59
2022/03/08 05:31:17;;;;;;;8.90;7.50;;;;;;;-2.25;72.91;100730.94;5071526;28;20695;-60
2022/03/08 05:33:42;;;;;;;12.33;7.27;;;;;;;-2.20;72.61;100726.78;5077945;28;20184;-60
2022/03/08 05:36:08;;;;;;;12.53;7.10;;;;;;;-2.34;73.36;100734.22;5071798;28;20173;-59
2022/03/08 05:38:33;;;;;;;9.43;7.47;;;;;;;-2.38;73.52;100727.44;5071535;28;20188;-60
2022/03/08 05:40:59;;;;;;;9.43;7.27;;;;;;;-2.37;73.82;100722.44;5061169;28;20236;-59
2022/03/08 05:43:25;;;;;;;8.77;7.03;;;;;;;-2.31;74.20;100725.03;5061688;28;20169;-58
2022/03/08 05:45:51;;;;;;;7.77;6.93;;;;;;;-2.31;73.86;100719.97;5071220;28;20468;-61
2022/03/08 05:48:16;;;;;;;12.80;7.20;;;;;;;-2.32;73.83;100722.47;5070091;28;20184;-59
2022/03/08 05:50:41;;;;;;;7.47;6.67;;;;;;;-2.31;74.31;100725.03;5065663;28;20222;-58
2022/03/08 05:53:06;;;;;;;10.37;7.87;;;;;;;-2.21;73.98;100727.59;5086217;28;20185;-59
2022/03/08 05:55:33;;;;;;;8.63;6.83;;;;;;;-2.23;73.68;100731.78;5078188;28;20168;-58
2022/03/08 05:57:58;;;;;;;8.37;7.40;;;;;;;-2.23;73.94;100740.22;5076320;28;20623;-59
2022/03/08 06:00:23;;;;;;;11.13;6.87;;;;;;;-2.30;74.03;100740.97;5068032;28;20545;-59
2022/03/08 06:02:49;;;;;;;11.10;7.87;;;;;;;-2.38;74.41;100743.44;5077352;28;20168;-59
2022/03/08 06:05:14;;;;;;;8.97;7.43;;;;;;;-2.38;74.75;100748.47;5076512;28;20242;-59
2022/03/08 06:07:40;;;;;;;10.07;7.43;;;;;;;-2.27;74.24;100756.09;5077032;28;20258;-59
2022/03/08 06:10:08;;;;;;;8.10;7.10;;;;;;;-2.17;73.73;100759.56;5067657;28;20246;-59
2022/03/08 06:12:34;;;;;;;9.50;7.67;;;;;;;-2.25;73.79;100771.28;5068347;28;20549;-60
2022/03/08 06:15:00;;;;;;;10.40;7.20;;;;;;;-2.25;74.04;100773.78;5084990;28;20771;-59
2022/03/08 06:17:25;;;;;;;11.77;7.47;;;;;;;-2.28;73.78;100777.97;5076187;28;20419;-59
2022/03/08 06:19:51;;;;;;;8.47;6.50;;;;;;;-2.18;73.86;100781.41;5077865;28;20633;-58
2022/03/08 06:22:16;;;;;;;10.23;6.73;;;;;;;-2.19;74.02;100778.88;5083926;28;20293;-59
2022/03/08 06:24:41;;;;;;;9.60;8.33;;;;;;;-2.17;73.68;100779.72;5076562;28;20209;-59
2022/03/08 06:27:07;;;;;;;8.50;7.43;;;;;;;-2.14;73.21;100782.28;5076764;28;20628;-58
2022/03/08 06:29:32;;;;;;;12.90;6.90;;;;;;;-2.20;73.46;100780.53;5076996;28;20200;-58
2022/03/08 06:31:58;;;;;;;8.20;6.83;;;;;;;-2.23;73.25;100788.09;5083017;28;20281;-58
2022/03/08 06:34:23;;;;;;;12.87;7.13;;;;;;;-2.18;73.12;100788.97;5076334;28;20180;-58
2022/03/08 06:36:48;;;;;;;10.03;7.43;;;;;;;-2.09;73.29;100790.72;5078362;28;20259;-61
2022/03/08 06:39:14;;;;;;;10.90;7.17;;;;;;;-1.93;72.68;100786.66;5077445;28;20182;-59
2022/03/08 06:41:39;;;;;;;12.53;7.63;;;;;;;-1.77;71.19;100795.19;5066575;28;20233;-59
2022/03/08 06:44:04;;;;;;;9.87;7.00;;;;;;;-1.64;70.83;100788.53;5077597;28;20183;-59
2022/03/08 06:46:31;;;;;;;9.00;6.77;;;;;;;-1.42;70.24;100798.78;5077285;28;20251;-58
2022/03/08 06:48:56;;;;;;;10.83;7.53;;;;;;;-1.14;68.81;100792.22;5075785;28;20665;-59
2022/03/08 06:51:22;;;;;;;7.77;6.97;;;;;;;-0.41;66.47;100794.97;5077913;28;20525;-59
2022/03/08 06:53:47;;;;;;;11.30;7.17;;;;;;;0.45;62.12;100794.16;5083524;28;20678;-60
2022/03/08 06:56:13;;;;;;;8.77;7.17;;;;;;;0.85;59.27;100794.03;5077870;28;20651;-59
2022/03/08 06:58:38;;;;;;;9.47;6.73;;;;;;;1.71;56.06;100791.94;5077452;28;20188;-59
2022/03/08 07:01:03;;;;;;;6.97;6.27;;;;;;;2.50;52.92;100789.56;5067156;28;20228;-61
2022/03/08 07:03:28;;;;;;;8.90;7.27;;;;;;;2.64;52.50;100784.38;5076086;28;20183;-59
2022/03/08 07:05:54;;;;;;;9.67;6.23;;;;;;;2.65;51.49;100791.13;5074065;28;20181;-60
2022/03/08 07:08:19;;;;;;;9.33;6.20;;;;;;;2.46;51.97;100793.00;5074167;28;20272;-60
2022/03/08 07:10:45;;;;;;;9.60;6.13;;;;;;;3.04;50.49;100778.81;5064263;28;20310;-60
2022/03/08 07:13:10;;;;;;;11.13;6.30;;;;;;;3.46;50.18;100785.06;5066485;28;20192;-61
2022/03/08 07:15:35;;;;;;;8.43;6.00;;;;;;;3.82;48.03;100786.22;5063629;28;20270;-59
2022/03/08 07:18:01;;;;;;;7.43;6.40;;;;;;;3.45;48.86;100784.22;5053166;28;20202;-61
2022/03/08 07:20:26;;;;;;;7.37;6.23;;;;;;;3.64;48.50;100786.50;5046314;28;20224;-59
2022/03/08 07:22:52;;;;;;;9.33;6.00;;;;;;;3.76;48.27;100781.22;5065683;28;20169;-61
2022/03/08 07:25:17;;;;;;;8.67;6.63;;;;;;;3.96;47.42;100780.91;5052170;28;20503;-61
2022/03/08 07:27:43;;;;;;;6.80;6.20;;;;;;;4.72;46.03;100779.56;5051802;28;20681;-60
2022/03/08 07:30:10;;;;;;;7.73;6.47;;;;;;;3.94;47.01;100786.88;5042597;28;20618;-61
2022/03/08 07:32:36;;;;;;;6.90;6.00;;;;;;;4.40;45.80;100783.56;5051998;28;20633;-59
2022/03/08 07:35:02;;;;;;;10.27;6.20;;;;;;;4.76;45.32;100781.19;5051998;28;20193;-60
2022/03/08 07:37:27;;;;;;;8.80;5.63;;;;;;;4.49;45.60;100790.19;5053763;28;20598;-60
2022/03/08 07:39:53;;;;;;;6.17;5.57;;;;;;;4.07;46.78;100784.97;5065509;28;20277;-60
2022/03/08 07:42:19;;;;;;;9.43;5.90;;;;;;;3.15;48.63;100785.47;5069564;28;20226;-61
2022/03/08 07:44:44;;;;;;;12.53;6.63;;;;;;;3.86;47.11;100781.94;5067392;28;20183;-59
2022/03/08 07:47:10;;;;;;;7.13;6.13;;;;;;;3.53;48.14;100786.66;5072198;28;20185;-61
2022/03/08 07:49:35;;;;;;;8.73;7.00;;;;;;;3.05;48.77;100782.19;5072888;28;20240;-59
2022/03/08 07:52:01;;;;;;;8.83;6.37;;;;;;;2.21;50.67;100790.69;5077799;28;20215;-60
2022/03/08 07:54:26;;;;;;;9.03;6.67;;;;;;;2.02;51.54;100786.63;5071102;28;20195;-61
2022/03/08 07:56:52;;;;;;;10.53;6.30;;;;;;;2.13;51.72;100794.16;5073705;28;20689;-60
2022/03/08 07:59:17;;;;;;;7.40;6.50;;;;;;;1.70;52.49;100790.25;5072735;28;20226;-60
2022/03/08 08:01:42;;;;;;;7.97;7.00;;;;;;;1.53;53.14;100775.97;5040420;28;20235;-60
2022/03/08 08:04:08;;;;;;;8.40;6.70;;;;;;;1.28;54.32;100787.97;5070928;28;20344;-59
2022/03/08 08:06:33;;;;;;;10.00;6.73;;;;;;;1.16;54.71;100788.84;5073454;28;20183;-59
2022/03/08 08:08:58;;;;;;;8.67;7.10;;;;;;;1.15;55.51;100791.41;5071107;28;20220;-63
2022/03/08 08:11:24;;;;;;;8.33;6.73;;;;;;;1.45;53.90;100791.25;5073447;28;20227;-60
2022/03/08 08:13:50;;;;;;;8.63;6.63;;;;;;;1.94;52.59;100794.31;5078569;28;20519;-61
2022/03/08 08:16:17;;;;;;;14.10;7.93;;;;;;;2.37;51.63;100788.00;5072587;28;20216;-60
2022/03/08 08:18:42;;;;;;;9.87;7.07;;;;;;;2.13;50.99;100789.91;5071369;28;20267;-60
2022/03/08 08:21:07;;;;;;;10.77;8.00;;;;;;;1.80;52.36;100786.81;5071648;28;20257;-62
2022/03/08 08:23:33;;;;;;;8.43;7.50;;;;;;;1.96;51.99;100792.63;5080218;28;20644;-60
2022/03/08 08:25:58;;;;;;;8.13;7.30;;;;;;;1.96;51.91;100790.06;5088434;28;20269;-59
2022/03/08 08:28:24;;;;;;;8.40;7.53;;;;;;;2.09;50.56;100796.72;5056428;28;20692;-61
2022/03/08 08:30:49;;;;;;;8.20;7.40;;;;;;;1.89;51.34;100785.91;5028500;28;20229;-61
2022/03/08 08:33:14;;;;;;;7.83;6.97;;;;;;;1.78;51.27;100788.50;5034154;28;20586;-60
2022/03/08 08:35:40;;;;;;;9.70;7.13;;;;;;;1.67;51.79;100786.03;5051426;28;20187;-60
2022/03/08 08:38:06;;;;;;;9.20;7.77;;;;;;;1.80;50.92;100783.41;5050973;28;20428;-61
2022/03/08 08:40:34;;;;;;;7.47;6.67;;;;;;;1.58;51.76;100781.03;5061497;28;20596;-60
2022/03/08 08:43:00;;;;;;;9.03;6.70;;;;;;;1.65;51.19;100789.44;5070132;28;20218;-59
2022/03/08 08:45:25;;;;;;;9.00;7.55;;;;;;;1.80;50.54;100781.72;5071826;28;20445;-61
2022/03/08 08:47:50;;;;;;;11.17;7.73;;;;;;;1.82;50.66;100785.06;5071878;28;20177;-60
2022/03/08 08:50:16;;;;;;;10.27;7.30;;;;;;;1.88;50.61;100779.97;5064191;28;20257;-60
2022/03/08 08:52:41;;;;;;;6.73;6.03;;;;;;;1.94;50.63;100779.09;5070520;28;20222;-60
2022/03/08 08:55:07;;;;;;;9.53;6.43;;;;;;;2.18;50.01;100785.63;5072393;28;20546;-61
2022/03/08 08:57:33;;;;;;;7.00;6.33;;;;;;;2.29;49.24;100783.00;5054877;28;20632;-60
2022/03/08 08:59:58;;;;;;;7.90;5.93;;;;;;;2.42;48.60;100782.03;5064441;28;20188;-62
2022/03/08 09:02:24;;;;;;;9.30;6.50;;;;;;;2.69;47.68;100784.31;5059899;28;20233;-60
2022/03/08 09:04:49;;;;;;;7.53;5.70;;;;;;;2.76;47.82;100780.84;5051074;28;20174;-60
2022/03/08 09:07:14;;;;;;;8.83;6.13;;;;;;;3.05;46.88;100777.97;5052152;28;20254;-59
2022/03/08 09:09:39;;;;;;;13.50;6.70;;;;;;;3.27;46.34;100779.38;5051958;28;20640;-60
2022/03/08 09:12:05;;;;;;;8.40;6.70;;;;;;;3.48;45.89;100773.16;5057539;28;20710;-60
2022/03/08 09:14:31;;;;;;;9.10;6.20;;;;;;;4.07;44.78;100770.56;5052481;28;20177;-60
2022/03/08 09:16:56;;;;;;;10.10;6.70;;;;;;;4.34;44.25;100773.47;5052119;28;20483;-61
2022/03/08 09:19:22;;;;;;;7.27;6.57;;;;;;;4.98;42.33;100757.81;5051166;28;20193;-63
2022/03/08 09:21:47;;;;;;;10.02;6.47;;;;;;;6.59;38.89;100754.84;5043403;28;20842;-61
2022/03/08 09:24:13;;;;;;;8.50;6.83;;;;;;;7.33;38.08;100754.44;5053849;28;20303;-61
2022/03/08 09:26:38;;;;;;;7.17;6.40;;;;;;;6.92;37.72;100753.94;5051657;28;20264;-61
2022/03/08 09:29:03;;;;;;;7.93;6.17;;;;;;;7.86;37.13;100753.66;5050844;28;20682;-62
2022/03/08 09:31:28;;;;;;;8.30;5.50;;;;;;;7.92;35.81;100742.34;5052295;28;20299;-61
2022/03/08 09:33:54;;;;;;;7.23;6.27;;;;;;;7.66;36.85;100745.75;5056405;28;20196;-62
2022/03/08 09:36:19;;;;;;;8.63;6.93;;;;;;;8.38;35.11;100740.78;5051747;28;20209;-62
2022/03/08 09:38:44;;;;;;;6.33;5.73;;;;;;;9.00;34.24;100732.59;5054814;28;20184;-61
2022/03/08 09:41:11;;;;;;;7.77;5.73;;;;;;;10.06;32.39;100737.81;5054019;28;20217;-60
2022/03/08 09:43:38;;;;;;;7.03;6.33;;;;;;;9.28;33.07;100731.53;5052230;28;20196;-63
2022/03/08 09:46:04;;;;;;;6.77;6.07;;;;;;;8.98;33.55;100731.81;5086335;28;20181;-62
2022/03/08 09:48:29;;;;;;;8.07;6.70;;;;;;;9.11;33.54;100729.63;5084129;28;20597;-59
2022/03/08 09:50:59;;;;;;;7.87;6.80;;;;;;;8.60;34.27;100728.97;5047460;28;20312;-61
2022/03/08 09:53:26;;;;;;;9.00;6.07;;;;;;;8.54;34.94;100724.88;5059270;28;20667;-63
2022/03/08 09:55:56;;;;;;;6.93;6.23;;;;;;;8.94;33.46;100731.09;5049368;28;20235;-61
2022/03/08 09:58:22;;;;;;;7.57;6.00;;;;;;;8.94;33.74;100728.53;5051631;28;20219;-62
2022/03/08 10:00:47;;;;;;;9.53;6.63;;;;;;;8.99;34.19;100729.22;5047566;28;20224;-60
2022/03/08 10:03:12;;;;;;;7.57;6.50;;;;;;;9.89;32.31;100727.41;5060473;28;20227;-62
2022/03/08 10:05:41;;;;;;;6.73;5.90;;;;;;;10.56;31.97;100730.59;5058003;28;20196;-61
2022/03/08 10:08:13;;;;;;;11.23;6.70;;;;;;;10.46;31.67;100722.44;5049589;28;20235;-62
2022/03/08 10:11:01;;;;;;;6.33;5.63;;;;;;;9.48;32.83;100731.59;5045538;28;20226;-64
2022/03/08 10:13:31;;;;;;;8.40;6.80;;;;;;;9.73;32.56;100733.16;5057520;28;20224;-61
2022/03/08 10:16:09;;;;;;;7.77;6.97;;;;;;;11.23;30.43;100724.06;5050041;28;20264;-61
2022/03/08 10:18:38;;;;;;;6.43;5.83;;;;;;;10.69;30.91;100726.53;5049131;28;20200;-61
2022/03/08 10:21:09;;;;;;;8.30;6.70;;;;;;;9.71;32.30;100716.16;5048534;28;20227;-63
2022/03/08 10:23:41;;;;;;;7.47;6.65;;;;;;;10.32;31.27;100707.59;5058986;28;20984;-63
2022/03/08 10:26:11;;;;;;;9.87;6.90;;;;;;;10.88;30.91;100708.53;5066456;28;20187;-61
2022/03/08 10:28:51;;;;;;;7.33;6.57;;;;;;;10.15;31.28;100706.56;5065155;28;20551;-61
2022/03/08 10:31:17;;;;;;;7.13;5.90;;;;;;;10.12;31.61;100703.28;5062242;28;20227;-61
2022/03/08 10:33:45;;;;;;;7.37;5.80;;;;;;;9.78;32.19;100702.16;5076734;28;20177;-60
2022/03/08 10:36:25;;;;;;;7.22;6.18;;;;;;;7.63;35.15;100700.59;5069938;28;20425;-60
2022/03/08 10:39:12;;;;;;;7.17;6.23;;;;;;;6.76;37.25;100692.16;5066072;28;20181;-61
2022/03/08 10:41:56;;;;;;;9.87;6.17;;;;;;;6.71;38.07;100694.88;5053082;28;20228;-62
2022/03/08 10:44:39;;;;;;;7.60;6.28;;;;;;;6.51;37.51;100692.03;5073495;28;20770;-61
2022/03/08 10:47:10;;;;;;;6.80;6.20;;;;;;;6.18;38.03;100684.41;5073079;28;20180;-62
2022/03/08 10:49:56;;;;;;;8.33;6.27;;;;;;;5.87;39.14;100685.22;5064500;28;20250;-62
2022/03/08 10:52:34;;;;;;;7.17;6.10;;;;;;;6.08;38.89;100683.84;5060105;28;20598;-60
2022/03/08 10:55:11;;;;;;;9.23;5.90;;;;;;;6.16;38.94;100675.97;5054808;28;20184;-60
2022/03/08 10:57:37;;;;;;;7.67;6.70;;;;;;;6.08;38.63;100678.72;5071076;28;20233;-61
2022/03/08 11:00:11;;;;;;;8.13;5.70;;;;;;;5.95;38.86;100675.63;5067359;28;20231;-62
2022/03/08 11:02:55;;;;;;;9.90;6.07;;;;;;;5.63;39.66;100677.25;5089150;28;20186;-60
2022/03/08 11:05:25;;;;;;;7.60;5.93;;;;;;;5.97;39.04;100674.69;5071921;28;20210;-62
2022/03/08 11:07:53;;;;;;;10.33;6.53;;;;;;;6.05;38.91;100673.69;5074168;28;20189;-60
2022/03/08 11:10:19;;;;;;;8.03;6.30;;;;;;;6.09;38.92;100655.69;5064866;28;20209;-62
2022/03/08 11:12:46;;;;;;;5.83;5.00;;;;;;;6.17;38.73;100660.59;5087682;28;20196;-63
2022/03/08 11:15:14;;;;;;;16.30;5.63;;;;;;;6.19;37.66;100640.97;5072788;28;20227;-60
2022/03/08 11:17:43;;;;;;;5.50;4.90;;;;;;;6.08;37.76;100643.81;5071939;28;20185;-60
2022/03/08 11:20:10;;;;;;;8.47;5.23;;;;;;;6.45;36.84;100634.28;5062058;28;20348;-60
2022/03/08 11:22:37;;;;;;;4.40;3.83;;;;;;;6.56;35.66;100627.13;5088292;28;20259;-61
2022/03/08 11:25:04;;;;;;;6.60;4.23;;;;;;;6.62;35.05;100626.09;5072840;28;20186;-61
2022/03/08 11:27:31;;;;;;;7.53;4.57;;;;;;;6.53;35.53;100632.31;5072136;28;20247;-61
2022/03/08 11:29:56;;;;;;;7.37;5.30;;;;;;;6.71;35.25;100630.09;5071896;28;20422;-60
2022/03/08 11:32:31;;;;;;;7.30;4.93;;;;;;;6.87;34.70;100626.22;5078920;28;20227;-60
2022/03/08 11:35:08;;;;;;;5.13;4.50;;;;;;;6.91;34.62;100622.66;5073235;28;20210;-60
2022/03/08 11:37:37;;;;;;;6.55;4.60;;;;;;;7.21;34.53;100626.88;5070766;28;20431;-60
2022/03/08 11:40:10;;;;;;;5.93;4.57;;;;;;;7.03;34.31;100618.06;5069678;28;20222;-60
2022/03/08 11:42:42;;;;;;;5.37;4.67;;;;;;;6.97;34.78;100618.25;5072238;28;20224;-62
2022/03/08 11:45:11;;;;;;;5.53;4.90;;;;;;;7.10;34.49;100617.81;5073565;28;20238;-61
2022/03/08 11:47:42;;;;;;;8.50;4.93;;;;;;;7.12;34.64;100615.22;5071706;28;20191;-61
2022/03/08 11:50:36;;;;;;;6.17;5.13;;;;;;;7.13;34.13;100611.75;5063051;28;20200;-60
2022/03/08 11:53:13;;;;;;;6.53;4.97;;;;;;;7.25;33.99;100610.53;5070367;28;20642;-62
2022/03/08 11:55:44;;;;;;;4.97;4.10;;;;;;;7.38;33.75;100611.81;5073330;28;20179;-61
2022/03/08 11:58:14;;;;;;;5.60;4.47;;;;;;;7.25;33.80;100602.84;5062756;28;20196;-60
2022/03/08 12:00:51;;;;;;;5.70;4.30;;;;;;;7.42;34.27;100604.88;5051203;28;20219;-61
2022/03/08 12:03:41;;;;;;;6.43;4.23;;;;;;;7.26;33.46;100594.28;5082738;28;20182;-61
2022/03/08 12:06:08;;;;;;;7.97;4.17;;;;;;;7.21;33.52;100598.72;5055882;28;20226;-59
2022/03/08 12:08:33;;;;;;;6.17;4.97;;;;;;;7.14;33.53;100607.50;5069793;28;20183;-60
2022/03/08 12:11:26;;;;;;;4.20;3.80;;;;;;;7.14;33.76;100592.97;5070333;28;20228;-60
2022/03/08 12:14:10;;;;;;;4.83;3.83;;;;;;;7.21;33.29;100591.06;5077597;28;20172;-60
2022/03/08 12:16:39;;;;;;;5.43;4.70;;;;;;;7.19;32.73;100590.25;5064719;28;20468;-61